sensor_id;sensor_type;location;lat;lon;timestamp;pressure;altitude;pressure_sealevel;temperature;humidity
35519;BME280;21627;48.216;16.482;2023-01-25T00:01:05;101517.28;;;2.58;100.00
35519;BME280;21627;48.216;16.482;2023-01-25T00:03:32;101531.09;;;2.62;100.00
35519;BME280;21627;48.216;16.482;2023-01-25T00:06:00;101516.88;;;2.52;100.00
35519;BME280;21627;48.216;16.482;2023-01-25T00:08:32;101532.94;;;2.64;100.00
35519;BME280;21627;48.216;16.482;2023-01-25T00:10:59;101512.75;;;2.54;100.00
35519;BME280;21627;48.216;16.482;2023-01-25T00:13:26;101531.47;;;2.68;100.00
35519;BME280;21627;48.216;16.482;2023-01-25T00:16:00;101526.19;;;2.65;100.00
35519;BME280;21627;48.216;16.482;2023-01-25T00:18:27;101514.72;;;2.58;100.00
35519;BME280;21627;48.216;16.482;2023-01-25T00:20:54;101532.66;;;2.59;100.00
35519;BME280;21627;48.216;16.482;2023-01-25T00:23:21;101525.00;;;2.59;100.00
35519;BME280;21627;48.216;16.482;2023-01-25T00:25:56;101526.78;;;2.60;100.00
35519;BME280;21627;48.216;16.482;2023-01-25T00:28:24;101526.09;;;2.63;100.00
35519;BME280;21627;48.216;16.482;2023-01-25T00:30:51;101533.94;;;2.66;100.00
35519;BME280;21627;48.216;16.482;2023-01-25T00:35:48;101535.03;;;2.56;100.00
35519;BME280;21627;48.216;16.482;2023-01-25T00:38:33;101537.53;;;2.55;100.00
35519;BME280;21627;48.216;16.482;2023-01-25T00:41:00;101528.78;;;2.51;100.00
35519;BME280;21627;48.216;16.482;2023-01-25T00:43:28;101538.22;;;2.52;100.00
35519;BME280;21627;48.216;16.482;2023-01-25T00:46:01;101539.97;;;2.53;100.00
35519;BME280;21627;48.216;16.482;2023-01-25T00:48:29;101534.69;;;2.50;100.00
35519;BME280;21627;48.216;16.482;2023-01-25T00:51:02;101540.06;;;2.55;100.00
35519;BME280;21627;48.216;16.482;2023-01-25T00:53:33;101543.84;;;2.62;100.00
35519;BME280;21627;48.216;16.482;2023-01-25T00:56:00;101546.22;;;2.58;100.00
35519;BME280;21627;48.216;16.482;2023-01-25T00:58:28;101537.78;;;2.59;100.00
35519;BME280;21627;48.216;16.482;2023-01-25T01:00:55;101539.97;;;2.53;100.00
35519;BME280;21627;48.216;16.482;2023-01-25T01:03:23;101541.66;;;2.53;100.00
35519;BME280;21627;48.216;16.482;2023-01-25T01:06:11;101538.00;;;2.49;100.00
35519;BME280;21627;48.216;16.482;2023-01-25T01:08:40;101538.81;;;2.48;100.00
35519;BME280;21627;48.216;16.482;2023-01-25T01:11:10;101549.38;;;2.54;100.00
35519;BME280;21627;48.216;16.482;2023-01-25T01:13:39;101549.78;;;2.60;100.00
35519;BME280;21627;48.216;16.482;2023-01-25T01:16:09;101543.16;;;2.64;100.00
35519;BME280;21627;48.216;16.482;2023-01-25T01:18:41;101539.66;;;2.62;100.00
35519;BME280;21627;48.216;16.482;2023-01-25T01:21:09;101541.59;;;2.66;100.00
35519;BME280;21627;48.216;16.482;2023-01-25T01:23:37;101535.50;;;2.64;100.00
35519;BME280;21627;48.216;16.482;2023-01-25T01:26:09;101540.72;;;2.66;100.00
35519;BME280;21627;48.216;16.482;2023-01-25T01:28:37;101541.81;;;2.56;100.00
35519;BME280;21627;48.216;16.482;2023-01-25T01:31:19;101531.25;;;2.50;100.00
35519;BME280;21627;48.216;16.482;2023-01-25T01:33:55;101531.25;;;2.50;100.00
35519;BME280;21627;48.216;16.482;2023-01-25T01:36:25;101537.78;;;2.59;100.00
35519;BME280;21627;48.216;16.482;2023-01-25T01:38:53;101536.81;;;2.57;100.00
35519;BME280;21627;48.216;16.482;2023-01-25T01:41:21;101535.50;;;2.64;100.00
35519;BME280;21627;48.216;16.482;2023-01-25T01:43:48;101538.84;;;2.63;100.00
35519;BME280;21627;48.216;16.482;2023-01-25T01:46:29;101540.19;;;2.71;100.00
35519;BME280;21627;48.216;16.482;2023-01-25T01:49:20;101534.38;;;2.74;100.00
35519;BME280;21627;48.216;16.482;2023-01-25T01:52:09;101531.19;;;2.63;100.00
35519;BME280;21627;48.216;16.482;2023-01-25T01:55:02;101526.69;;;2.59;100.00
35519;BME280;21627;48.216;16.482;2023-01-25T01:57:43;101516.88;;;2.52;100.00
35519;BME280;21627;48.216;16.482;2023-01-25T02:00:33;101519.72;;;2.56;100.00
35519;BME280;21627;48.216;16.482;2023-01-25T02:03:01;101540.16;;;2.56;100.00
35519;BME280;21627;48.216;16.482;2023-01-25T02:06:00;101531.03;;;2.60;100.00
35519;BME280;21627;48.216;16.482;2023-01-25T02:08:33;101535.03;;;2.56;100.00
35519;BME280;21627;48.216;16.482;2023-01-25T02:11:03;101516.81;;;2.50;100.00
35519;BME280;21627;48.216;16.482;2023-01-25T02:13:31;101534.06;;;2.54;100.00
35519;BME280;21627;48.216;16.482;2023-01-25T02:15:58;101524.28;;;2.47;100.00
35519;BME280;21627;48.216;16.482;2023-01-25T02:18:26;101535.31;;;2.61;100.00
35519;BME280;21627;48.216;16.482;2023-01-25T02:20:56;101529.16;;;2.57;100.00
35519;BME280;21627;48.216;16.482;2023-01-25T02:23:55;101523.84;;;2.54;100.00
35519;BME280;21627;48.216;16.482;2023-01-25T02:26:24;101535.66;;;2.52;100.00
35519;BME280;21627;48.216;16.482;2023-01-25T02:29:00;101544.28;;;2.54;100.00
35519;BME280;21627;48.216;16.482;2023-01-25T02:31:29;101535.72;;;2.54;100.00
35519;BME280;21627;48.216;16.482;2023-01-25T02:33:56;101539.09;;;2.53;100.00
35519;BME280;21627;48.216;16.482;2023-01-25T02:36:28;101533.28;;;2.55;100.00
35519;BME280;21627;48.216;16.482;2023-01-25T02:39:13;101508.75;;;2.44;100.00
35519;BME280;21627;48.216;16.482;2023-01-25T02:41:45;101521.72;;;2.47;100.00
35519;BME280;21627;48.216;16.482;2023-01-25T02:44:26;101528.06;;;2.54;100.00
35519;BME280;21627;48.216;16.482;2023-01-25T02:46:54;101522.59;;;2.48;100.00
35519;BME280;21627;48.216;16.482;2023-01-25T02:49:24;101514.66;;;2.43;100.00
35519;BME280;21627;48.216;16.482;2023-01-25T02:51:53;101512.06;;;2.56;100.00
35519;BME280;21627;48.216;16.482;2023-01-25T02:54:24;101501.84;;;2.56;100.00
35519;BME280;21627;48.216;16.482;2023-01-25T02:56:53;101500.41;;;2.47;100.00
35519;BME280;21627;48.216;16.482;2023-01-25T02:59:21;101495.81;;;2.41;100.00
35519;BME280;21627;48.216;16.482;2023-01-25T03:01:48;101500.69;;;2.51;100.00
35519;BME280;21627;48.216;16.482;2023-01-25T03:04:15;101495.81;;;2.41;100.00
35519;BME280;21627;48.216;16.482;2023-01-25T03:06:42;101499.16;;;2.40;100.00
35519;BME280;21627;48.216;16.482;2023-01-25T03:09:10;101484.63;;;2.39;100.00
35519;BME280;21627;48.216;16.482;2023-01-25T03:11:38;101480.44;;;2.40;100.00
35519;BME280;21627;48.216;16.482;2023-01-25T03:14:05;101469.94;;;2.35;100.00
35519;BME280;21627;48.216;16.482;2023-01-25T03:16:32;101473.81;;;2.43;100.00
35519;BME280;21627;48.216;16.482;2023-01-25T03:19:00;101465.59;;;2.34;100.00
35519;BME280;21627;48.216;16.482;2023-01-25T03:21:27;101463.56;;;2.28;100.00
35519;BME280;21627;48.216;16.482;2023-01-25T03:23:58;101470.63;;;2.32;100.00
35519;BME280;21627;48.216;16.482;2023-01-25T03:26:26;101470.63;;;2.32;100.00
35519;BME280;21627;48.216;16.482;2023-01-25T03:28:57;101465.69;;;2.35;100.00
35519;BME280;21627;48.216;16.482;2023-01-25T03:31:24;101465.97;;;2.40;100.00
35519;BME280;21627;48.216;16.482;2023-01-25T03:33:52;101452.41;;;2.41;100.00
35519;BME280;21627;48.216;16.482;2023-01-25T03:36:19;101462.97;;;2.32;100.00
35519;BME280;21627;48.216;16.482;2023-01-25T03:38:46;101453.75;;;2.34;100.00
35519;BME280;21627;48.216;16.482;2023-01-25T03:41:13;101448.94;;;2.26;100.00
35519;BME280;21627;48.216;16.482;2023-01-25T03:43:41;101453.47;;;2.30;100.00
35519;BME280;21627;48.216;16.482;2023-01-25T03:46:08;101454.34;;;2.30;100.00
35519;BME280;21627;48.216;16.482;2023-01-25T03:48:35;101447.19;;;2.25;100.00
35519;BME280;21627;48.216;16.482;2023-01-25T03:51:03;101452.19;;;2.23;100.00
35519;BME280;21627;48.216;16.482;2023-01-25T03:53:30;101454.91;;;2.26;100.00
35519;BME280;21627;48.216;16.482;2023-01-25T03:56:05;101450.09;;;2.31;100.00
35519;BME280;21627;48.216;16.482;2023-01-25T03:58:36;101435.03;;;2.21;100.00
35519;BME280;21627;48.216;16.482;2023-01-25T04:01:06;101449.22;;;2.30;100.00
35519;BME280;21627;48.216;16.482;2023-01-25T04:03:33;101446.56;;;2.29;100.00
35519;BME280;21627;48.216;16.482;2023-01-25T04:06:01;101436.78;;;2.22;100.00
35519;BME280;21627;48.216;16.482;2023-01-25T04:08:29;101440.59;;;2.28;100.00
35519;BME280;21627;48.216;16.482;2023-01-25T04:11:01;101440.03;;;2.19;100.00
35519;BME280;21627;48.216;16.482;2023-01-25T04:13:29;101441.63;;;2.17;100.00
35519;BME280;21627;48.216;16.482;2023-01-25T04:15:57;101444.63;;;2.25;100.00
35519;BME280;21627;48.216;16.482;2023-01-25T04:18:24;101448.13;;;2.40;100.00
35519;BME280;21627;48.216;16.482;2023-01-25T04:20:55;101444.13;;;2.30;100.00
35519;BME280;21627;48.216;16.482;2023-01-25T04:23:24;101442.25;;;2.28;100.00
35519;BME280;21627;48.216;16.482;2023-01-25T04:26:02;101425.63;;;2.20;100.00
35519;BME280;21627;48.216;16.482;2023-01-25T04:28:38;101427.06;;;2.29;100.00
35519;BME280;21627;48.216;16.482;2023-01-25T04:31:05;101432.94;;;2.28;100.00
35519;BME280;21627;48.216;16.482;2023-01-25T04:33:33;101428.00;;;2.31;100.00
35519;BME280;21627;48.216;16.482;2023-01-25T04:36:00;101428.13;;;2.33;100.00
35519;BME280;21627;48.216;16.482;2023-01-25T04:38:28;101429.50;;;2.28;100.00
35519;BME280;21627;48.216;16.482;2023-01-25T04:40:55;101409.91;;;2.13;100.00
35519;BME280;21627;48.216;16.482;2023-01-25T04:43:23;101423.75;;;2.17;100.00
35519;BME280;21627;48.216;16.482;2023-01-25T04:45:52;101397.44;;;2.18;100.00
35519;BME280;21627;48.216;16.482;2023-01-25T04:48:19;101420.00;;;2.25;100.00
35519;BME280;21627;48.216;16.482;2023-01-25T04:50:46;101418.91;;;2.22;100.00
35519;BME280;21627;48.216;16.482;2023-01-25T04:53:13;101413.16;;;2.11;100.00
35519;BME280;21627;48.216;16.482;2023-01-25T04:55:45;101418.84;;;2.20;100.00
35519;BME280;21627;48.216;16.482;2023-01-25T04:58:13;101414.16;;;2.13;100.00
35519;BME280;21627;48.216;16.482;2023-01-25T05:00:41;101426.38;;;2.19;100.00
35519;BME280;21627;48.216;16.482;2023-01-25T05:03:08;101423.75;;;2.17;100.00
35519;BME280;21627;48.216;16.482;2023-01-25T05:05:35;101422.38;;;2.22;100.00
35519;BME280;21627;48.216;16.482;2023-01-25T05:08:03;101422.97;;;2.18;100.00
35519;BME280;21627;48.216;16.482;2023-01-25T05:10:30;101427.97;;;2.16;100.00
35519;BME280;21627;48.216;16.482;2023-01-25T05:13:00;101424.13;;;2.23;100.00
35519;BME280;21627;48.216;16.482;2023-01-25T05:15:28;101432.28;;;2.17;100.00
35519;BME280;21627;48.216;16.482;2023-01-25T05:17:55;101435.53;;;2.15;100.00
35519;BME280;21627;48.216;16.482;2023-01-25T05:20:22;101426.03;;;2.12;100.00
35519;BME280;21627;48.216;16.482;2023-01-25T05:22:49;101424.63;;;2.17;100.00
35519;BME280;21627;48.216;16.482;2023-01-25T05:25:17;101437.41;;;2.17;100.00
35519;BME280;21627;48.216;16.482;2023-01-25T05:28:06;101436.41;;;2.15;100.00
35519;BME280;21627;48.216;16.482;2023-01-25T05:30:33;101439.94;;;2.17;100.00
35519;BME280;21627;48.216;16.482;2023-01-25T05:33:01;101445.81;;;2.16;100.00
35519;BME280;21627;48.216;16.482;2023-01-25T05:35:28;101439.53;;;2.25;100.00
35519;BME280;21627;48.216;16.482;2023-01-25T05:37:58;101449.63;;;2.23;100.00
35519;BME280;21627;48.216;16.482;2023-01-25T05:40:26;101438.38;;;2.20;100.00
35519;BME280;21627;48.216;16.482;2023-01-25T05:42:58;101440.94;;;2.20;100.00
35519;BME280;21627;48.216;16.482;2023-01-25T05:45:26;101437.91;;;2.12;100.00
35519;BME280;21627;48.216;16.482;2023-01-25T05:47:55;101440.31;;;2.24;100.00
35519;BME280;21627;48.216;16.482;2023-01-25T05:50:24;101429.56;;;2.14;100.00
35519;BME280;21627;48.216;16.482;2023-01-25T05:52:51;101445.22;;;2.21;100.00
35519;BME280;21627;48.216;16.482;2023-01-25T05:55:19;101445.06;;;2.17;100.00
35519;BME280;21627;48.216;16.482;2023-01-25T05:57:46;101433.75;;;2.14;100.00
35519;BME280;21627;48.216;16.482;2023-01-25T06:00:13;101454.56;;;2.20;100.00
35519;BME280;21627;48.216;16.482;2023-01-25T06:02:41;101452.09;;;2.22;100.00
35519;BME280;21627;48.216;16.482;2023-01-25T06:05:09;101450.63;;;2.25;100.00
35519;BME280;21627;48.216;16.482;2023-01-25T06:07:39;101449.34;;;2.19;100.00
35519;BME280;21627;48.216;16.482;2023-01-25T06:10:07;101446.91;;;2.20;100.00
35519;BME280;21627;48.216;16.482;2023-01-25T06:12:35;101456.50;;;2.24;100.00
35519;BME280;21627;48.216;16.482;2023-01-25T06:15:03;101457.28;;;2.23;100.00
35519;BME280;21627;48.216;16.482;2023-01-25T06:17:30;101452.59;;;2.44;100.00
35519;BME280;21627;48.216;16.482;2023-01-25T06:19:57;101445.97;;;2.33;100.00
35519;BME280;21627;48.216;16.482;2023-01-25T06:22:24;101452.56;;;2.57;100.00
35519;BME280;21627;48.216;16.482;2023-01-25T06:24:51;101447.50;;;2.44;100.00
35519;BME280;21627;48.216;16.482;2023-01-25T06:27:19;101459.72;;;2.35;100.00
35519;BME280;21627;48.216;16.482;2023-01-25T06:29:46;101460.25;;;2.29;100.00
35519;BME280;21627;48.216;16.482;2023-01-25T06:32:13;101462.28;;;2.35;100.00
35519;BME280;21627;48.216;16.482;2023-01-25T06:34:40;101448.25;;;2.28;100.00
35519;BME280;21627;48.216;16.482;2023-01-25T06:37:08;101451.50;;;2.26;100.00
35519;BME280;21627;48.216;16.482;2023-01-25T06:39:35;101438.28;;;2.18;100.00
35519;BME280;21627;48.216;16.482;2023-01-25T06:42:02;101444.06;;;2.15;100.00
35519;BME280;21627;48.216;16.482;2023-01-25T06:44:29;101446.63;;;2.15;100.00
35519;BME280;21627;48.216;16.482;2023-01-25T06:46:57;101451.03;;;2.18;100.00
35519;BME280;21627;48.216;16.482;2023-01-25T06:49:24;101442.56;;;2.19;100.00
35519;BME280;21627;48.216;16.482;2023-01-25T06:51:51;101436.59;;;2.19;100.00
35519;BME280;21627;48.216;16.482;2023-01-25T06:54:19;101430.16;;;2.10;100.00
35519;BME280;21627;48.216;16.482;2023-01-25T06:56:46;101442.56;;;2.19;100.00
35519;BME280;21627;48.216;16.482;2023-01-25T06:59:13;101434.91;;;2.19;100.00
35519;BME280;21627;48.216;16.482;2023-01-25T07:01:42;101430.16;;;2.10;100.00
35519;BME280;21627;48.216;16.482;2023-01-25T07:04:10;101435.53;;;2.15;100.00
35519;BME280;21627;48.216;16.482;2023-01-25T07:06:38;101443.28;;;2.16;100.00
35519;BME280;21627;48.216;16.482;2023-01-25T07:09:11;101432.28;;;2.17;100.00
35519;BME280;21627;48.216;16.482;2023-01-25T07:11:39;101430.78;;;2.21;100.00
35519;BME280;21627;48.216;16.482;2023-01-25T07:14:06;101440.94;;;2.20;100.00
35519;BME280;21627;48.216;16.482;2023-01-25T07:16:34;101415.72;;;2.11;100.00
35519;BME280;21627;48.216;16.482;2023-01-25T07:19:10;101432.47;;;2.21;100.00
35519;BME280;21627;48.216;16.482;2023-01-25T07:21:39;101427.09;;;2.16;100.00
35519;BME280;21627;48.216;16.482;2023-01-25T07:24:06;101434.50;;;2.26;100.00
35519;BME280;21627;48.216;16.482;2023-01-25T07:26:33;101430.38;;;2.28;100.00
35519;BME280;21627;48.216;16.482;2023-01-25T07:29:01;101428.63;;;2.27;100.00
35519;BME280;21627;48.216;16.482;2023-01-25T07:31:28;101436.97;;;2.25;100.00
35519;BME280;21627;48.216;16.482;2023-01-25T07:33:57;101424.13;;;2.23;100.00
35519;BME280;21627;48.216;16.482;2023-01-25T07:36:24;101433.91;;;2.30;100.00
35519;BME280;21627;48.216;16.482;2023-01-25T07:38:54;101445.69;;;2.28;100.00
35519;BME280;21627;48.216;16.482;2023-01-25T07:41:23;101427.72;;;2.27;100.00
35519;BME280;21627;48.216;16.482;2023-01-25T07:43:51;101436.75;;;2.35;100.00
35519;BME280;21627;48.216;16.482;2023-01-25T07:46:19;101439.38;;;2.36;100.00
35519;BME280;21627;48.216;16.482;2023-01-25T07:48:50;101431.66;;;2.35;100.00
35519;BME280;21627;48.216;16.482;2023-01-25T07:51:20;101431.94;;;2.40;100.00
35519;BME280;21627;48.216;16.482;2023-01-25T07:53:58;101431.72;;;2.36;100.00
35519;BME280;21627;48.216;16.482;2023-01-25T07:56:34;101416.63;;;2.26;100.00
35519;BME280;21627;48.216;16.482;2023-01-25T07:59:03;101431.81;;;2.38;100.00
35519;BME280;21627;48.216;16.482;2023-01-25T08:01:31;101421.31;;;2.33;100.00
35519;BME280;21627;48.216;16.482;2023-01-25T08:04:01;101436.06;;;2.37;100.00
35519;BME280;21627;48.216;16.482;2023-01-25T08:06:32;101437.72;;;2.37;100.00
35519;BME280;21627;48.216;16.482;2023-01-25T08:09:11;101422.03;;;2.31;100.00
35519;BME280;21627;48.216;16.482;2023-01-25T08:11:40;101423.13;;;2.34;100.00
35519;BME280;21627;48.216;16.482;2023-01-25T08:14:08;101425.91;;;2.39;100.00
35519;BME280;21627;48.216;16.482;2023-01-25T08:16:35;101430.53;;;2.45;100.00
35519;BME280;21627;48.216;16.482;2023-01-25T08:19:03;101427.06;;;2.44;100.00
35519;BME280;21627;48.216;16.482;2023-01-25T08:21:33;101434.94;;;2.47;100.00
35519;BME280;21627;48.216;16.482;2023-01-25T08:24:04;101425.41;;;2.45;100.00
35519;BME280;21627;48.216;16.482;2023-01-25T08:26:33;101426.38;;;2.47;100.00
35519;BME280;21627;48.216;16.482;2023-01-25T08:29:02;101422.16;;;2.47;100.00
35519;BME280;21627;48.216;16.482;2023-01-25T08:31:33;101423.13;;;2.49;100.00
35519;BME280;21627;48.216;16.482;2023-01-25T08:34:01;101414.59;;;2.49;100.00
35519;BME280;21627;48.216;16.482;2023-01-25T08:36:28;101419.84;;;2.52;100.00
35519;BME280;21627;48.216;16.482;2023-01-25T08:39:03;101413.59;;;2.47;100.00
35519;BME280;21627;48.216;16.482;2023-01-25T08:41:33;101419.50;;;2.46;100.00
35519;BME280;21627;48.216;16.482;2023-01-25T08:44:00;101406.41;;;2.40;100.00
35519;BME280;21627;48.216;16.482;2023-01-25T08:46:30;101400.38;;;2.39;100.00
35519;BME280;21627;48.216;16.482;2023-01-25T08:49:00;101403.91;;;2.41;100.00
35519;BME280;21627;48.216;16.482;2023-01-25T08:51:29;101412.66;;;2.59;100.00
35519;BME280;21627;48.216;16.482;2023-01-25T08:54:05;101400.09;;;2.63;100.00
35519;BME280;21627;48.216;16.482;2023-01-25T08:56:35;101404.75;;;2.55;100.00
35519;BME280;21627;48.216;16.482;2023-01-25T08:59:03;101409.84;;;2.55;100.00
35519;BME280;21627;48.216;16.482;2023-01-25T09:01:30;101391.53;;;2.47;100.00
35519;BME280;21627;48.216;16.482;2023-01-25T09:03:58;101397.78;;;2.52;100.00
35519;BME280;21627;48.216;16.482;2023-01-25T09:06:25;101390.63;;;2.47;100.00
35519;BME280;21627;48.216;16.482;2023-01-25T09:08:52;101396.28;;;2.56;100.00
35519;BME280;21627;48.216;16.482;2023-01-25T09:11:21;101410.03;;;2.58;100.00
35519;BME280;21627;48.216;16.482;2023-01-25T09:13:49;101415.75;;;2.69;100.00
35519;BME280;21627;48.216;16.482;2023-01-25T09:16:21;101398.84;;;2.56;100.00
35519;BME280;21627;48.216;16.482;2023-01-25T09:18:57;101410.91;;;2.58;100.00
35519;BME280;21627;48.216;16.482;2023-01-25T09:21:25;101411.50;;;2.54;100.00
35519;BME280;21627;48.216;16.482;2023-01-25T09:23:53;101398.38;;;2.48;100.00
35519;BME280;21627;48.216;16.482;2023-01-25T09:26:38;101400.78;;;2.60;100.00
35519;BME280;21627;48.216;16.482;2023-01-25T09:29:08;101393.13;;;2.60;100.00
35519;BME280;21627;48.216;16.482;2023-01-25T09:31:39;101397.44;;;2.61;100.00
35519;BME280;21627;48.216;16.482;2023-01-25T09:34:12;101390.66;;;2.62;100.00
35519;BME280;21627;48.216;16.482;2023-01-25T09:36:39;101392.69;;;2.67;100.00
35519;BME280;21627;48.216;16.482;2023-01-25T09:39:08;101370.31;;;2.63;100.00
35519;BME280;21627;48.216;16.482;2023-01-25T09:45:16;101376.75;;;2.71;100.00
35519;BME280;21627;48.216;16.482;2023-01-25T09:48:34;101376.13;;;2.75;100.00
35519;BME280;21627;48.216;16.482;2023-01-25T09:53:52;101361.97;;;2.66;100.00
35519;BME280;21627;48.216;16.482;2023-01-25T09:56:29;101357.72;;;2.66;100.00
35519;BME280;21627;48.216;16.482;2023-01-25T09:59:04;101371.09;;;2.77;100.00
35519;BME280;21627;48.216;16.482;2023-01-25T10:04:34;101351.47;;;2.76;100.00
35519;BME280;21627;48.216;16.482;2023-01-25T10:08:02;101342.94;;;2.75;100.00
35519;BME280;21627;48.216;16.482;2023-01-25T10:13:00;101348.03;;;2.90;100.00
35519;BME280;21627;48.216;16.482;2023-01-25T10:15:35;101338.34;;;2.85;100.00
35519;BME280;21627;48.216;16.482;2023-01-25T10:20:58;101322.13;;;2.84;100.00
35519;BME280;21627;48.216;16.482;2023-01-25T10:26:57;101328.28;;;3.02;100.00
35519;BME280;21627;48.216;16.482;2023-01-25T10:29:32;101310.75;;;2.94;100.00
35519;BME280;21627;48.216;16.482;2023-01-25T10:32:25;101314.03;;;2.91;100.00
35519;BME280;21627;48.216;16.482;2023-01-25T10:34:55;101308.75;;;2.88;100.00
35519;BME280;21627;48.216;16.482;2023-01-25T10:37:28;101308.56;;;3.00;100.00
35519;BME280;21627;48.216;16.482;2023-01-25T10:40:16;101310.47;;;3.04;100.00
35519;BME280;21627;48.216;16.482;2023-01-25T10:42:58;101304.06;;;2.96;100.00
35519;BME280;21627;48.216;16.482;2023-01-25T10:45:27;101299.22;;;3.00;100.00
35519;BME280;21627;48.216;16.482;2023-01-25T10:48:05;101298.25;;;2.98;100.00
35519;BME280;21627;48.216;16.482;2023-01-25T10:53:32;101279.38;;;2.96;100.00
35519;BME280;21627;48.216;16.482;2023-01-25T10:56:20;101281.41;;;3.02;100.00
35519;BME280;21627;48.216;16.482;2023-01-25T10:58:51;101271.56;;;2.93;100.00
35519;BME280;21627;48.216;16.482;2023-01-25T11:01:30;101280.25;;;2.97;100.00
35519;BME280;21627;48.216;16.482;2023-01-25T11:03:59;101279.84;;;2.89;100.00
35519;BME280;21627;48.216;16.482;2023-01-25T11:06:33;101273.31;;;2.94;100.00
35519;BME280;21627;48.216;16.482;2023-01-25T11:11:59;101270.94;;;2.97;100.00
35519;BME280;21627;48.216;16.482;2023-01-25T11:14:32;101269.16;;;2.96;100.00
35519;BME280;21627;48.216;16.482;2023-01-25T11:17:02;101268.13;;;2.93;100.00
35519;BME280;21627;48.216;16.482;2023-01-25T11:19:38;101252.16;;;2.97;100.00
35519;BME280;21627;48.216;16.482;2023-01-25T11:22:22;101253.06;;;2.97;100.00
35519;BME280;21627;48.216;16.482;2023-01-25T11:24:50;101253.84;;;2.96;100.00
35519;BME280;21627;48.216;16.482;2023-01-25T11:27:26;101244.78;;;2.87;100.00
35519;BME280;21627;48.216;16.482;2023-01-25T11:30:15;101240.75;;;2.90;100.00
35519;BME280;21627;48.216;16.482;2023-01-25T11:32:45;101238.72;;;2.85;100.00
35519;BME280;21627;48.216;16.482;2023-01-25T11:35:20;101214.69;;;2.81;100.00
35519;BME280;21627;48.216;16.482;2023-01-25T11:38:13;101229.88;;;2.94;100.00
35519;BME280;21627;48.216;16.482;2023-01-25T11:42:00;101222.06;;;2.91;100.00
35519;BME280;21627;48.216;16.482;2023-01-25T11:44:19;101210.16;;;2.92;100.00
35519;BME280;21627;48.216;16.482;2023-01-25T11:49:57;101198.91;;;2.88;100.00
35519;BME280;21627;48.216;16.482;2023-01-25T12:04:48;101164.88;;;2.89;100.00
35519;BME280;21627;48.216;16.482;2023-01-25T12:13:44;101161.47;;;2.89;100.00
35519;BME280;21627;48.216;16.482;2023-01-25T12:16:55;101153.53;;;2.84;100.00
35519;BME280;21627;48.216;16.482;2023-01-25T12:25:58;101143.25;;;2.83;100.00
35519;BME280;21627;48.216;16.482;2023-01-25T12:28:46;101137.09;;;2.79;100.00
35519;BME280;21627;48.216;16.482;2023-01-25T12:34:02;101128.56;;;2.78;100.00
35519;BME280;21627;48.216;16.482;2023-01-25T12:36:38;101112.28;;;2.76;100.00
35519;BME280;21627;48.216;16.482;2023-01-25T12:39:24;101110.78;;;2.80;100.00
35519;BME280;21627;48.216;16.482;2023-01-25T12:42:19;101103.88;;;2.79;100.00
35519;BME280;21627;48.216;16.482;2023-01-25T12:45:05;101111.81;;;2.84;100.00
35519;BME280;21627;48.216;16.482;2023-01-25T12:47:43;101106.19;;;2.74;100.00
35519;BME280;21627;48.216;16.482;2023-01-25T12:50:24;101115.47;;;2.72;100.00
35519;BME280;21627;48.216;16.482;2023-01-25T12:53:09;101101.91;;;2.73;100.00
35519;BME280;21627;48.216;16.482;2023-01-25T12:55:39;101102.88;;;2.75;100.00
35519;BME280;21627;48.216;16.482;2023-01-25T12:58:25;101096.53;;;2.69;100.00
35519;BME280;21627;48.216;16.482;2023-01-25T13:01:32;101092.00;;;2.79;100.00
35519;BME280;21627;48.216;16.482;2023-01-25T13:04:39;101088.66;;;2.80;100.00
35519;BME280;21627;48.216;16.482;2023-01-25T13:07:29;101084.19;;;2.76;100.00
35519;BME280;21627;48.216;16.482;2023-01-25T13:12:59;101066.25;;;2.75;100.00
35519;BME280;21627;48.216;16.482;2023-01-25T13:18:04;101047.56;;;2.76;100.00
35519;BME280;21627;48.216;16.482;2023-01-25T13:20:51;101079.47;;;2.84;100.00
35519;BME280;21627;48.216;16.482;2023-01-25T13:23:39;101073.66;;;2.70;100.00
35519;BME280;21627;48.216;16.482;2023-01-25T13:28:58;101066.06;;;2.88;100.00
35519;BME280;21627;48.216;16.482;2023-01-25T13:37:24;101033.56;;;2.69;100.00
35519;BME280;21627;48.216;16.482;2023-01-25T13:39:59;101045.16;;;2.79;100.00
35519;BME280;21627;48.216;16.482;2023-01-25T13:42:37;101040.50;;;2.72;100.00
35519;BME280;21627;48.216;16.482;2023-01-25T13:45:19;101043.72;;;2.68;100.00
35519;BME280;21627;48.216;16.482;2023-01-25T13:48:04;101036.63;;;2.62;100.00
35519;BME280;21627;48.216;16.482;2023-01-25T13:50:35;101037.97;;;2.55;100.00
35519;BME280;21627;48.216;16.482;2023-01-25T13:55:46;101034.94;;;2.63;100.00
35519;BME280;21627;48.216;16.482;2023-01-25T14:03:39;101029.03;;;2.47;100.00
35519;BME280;21627;48.216;16.482;2023-01-25T14:06:35;101040.78;;;2.60;100.00
35519;BME280;21627;48.216;16.482;2023-01-25T14:09:14;101024.81;;;2.48;100.00
35519;BME280;21627;48.216;16.482;2023-01-25T14:11:55;101033.63;;;2.54;100.00
35519;BME280;21627;48.216;16.482;2023-01-25T14:14:32;101021.78;;;2.55;100.00
35519;BME280;21627;48.216;16.482;2023-01-25T14:17:22;101018.16;;;2.51;100.00
35519;BME280;21627;48.216;16.482;2023-01-25T14:19:53;101024.97;;;2.51;100.00
35519;BME280;21627;48.216;16.482;2023-01-25T14:25:14;101037.41;;;2.45;100.00
35519;BME280;21627;48.216;16.482;2023-01-25T14:27:56;101020.72;;;2.35;100.00
35519;BME280;21627;48.216;16.482;2023-01-25T14:30:32;101036.69;;;2.47;100.00